createdAt,value
2023-05-03T00:00:55.595Z,13.31
2023-05-03T00:03:25.883Z,13.32
2023-05-03T00:05:52.691Z,13.33
2023-05-03T00:08:19.495Z,13.33
2023-05-03T00:10:46.243Z,13.31
2023-05-03T00:13:13.591Z,13.31
2023-05-03T00:15:40.569Z,13.31
2023-05-03T00:18:07.504Z,13.32
2023-05-03T00:20:34.470Z,13.32
2023-05-03T00:23:02.395Z,13.35
2023-05-03T00:25:29.673Z,13.38
2023-05-03T00:27:57.706Z,13.40
2023-05-03T00:30:25.475Z,13.41
2023-05-03T00:32:52.384Z,13.42
2023-05-03T00:35:19.404Z,13.41
2023-05-03T00:37:46.313Z,13.41
2023-05-03T00:40:15.456Z,13.40
2023-05-03T00:42:42.331Z,13.40
2023-05-03T00:45:09.509Z,13.38
2023-05-03T00:47:36.934Z,13.38
2023-05-03T00:50:05.023Z,13.37
2023-05-03T00:52:32.139Z,13.37
2023-05-03T00:54:58.984Z,13.36
2023-05-03T00:57:25.781Z,13.35
2023-05-03T00:59:53.032Z,13.34
2023-05-03T01:02:19.911Z,13.31
2023-05-03T01:04:47.186Z,13.28
2023-05-03T01:07:32.849Z,13.26
2023-05-03T01:10:39.075Z,13.24
2023-05-03T01:13:30.546Z,13.22
2023-05-03T01:16:10.273Z,13.18
2023-05-03T01:18:42.380Z,13.16
2023-05-03T01:21:09.741Z,13.13
2023-05-03T01:23:40.743Z,13.12
2023-05-03T01:26:21.645Z,13.12
2023-05-03T01:28:48.603Z,13.10
2023-05-03T01:31:29.031Z,13.08
2023-05-03T01:34:10.908Z,13.06
2023-05-03T01:36:37.789Z,13.04
2023-05-03T01:39:07.922Z,13.00
2023-05-03T01:41:36.323Z,12.97
2023-05-03T01:44:03.612Z,12.96
2023-05-03T01:46:30.453Z,12.94
2023-05-03T01:48:57.235Z,12.92
2023-05-03T01:51:24.166Z,12.90
2023-05-03T01:53:50.940Z,12.88
2023-05-03T01:56:17.693Z,12.86
2023-05-03T01:58:44.573Z,12.84
2023-05-03T02:01:11.431Z,12.81
2023-05-03T02:03:38.327Z,12.79
2023-05-03T02:06:05.339Z,12.77
2023-05-03T02:08:32.263Z,12.75
2023-05-03T02:10:59.613Z,12.72
2023-05-03T02:13:26.433Z,12.69
2023-05-03T02:15:53.326Z,12.66
2023-05-03T02:18:20.481Z,12.63
2023-05-03T02:20:47.437Z,12.60
2023-05-03T02:23:14.314Z,12.56
2023-05-03T02:25:41.385Z,12.52
2023-05-03T02:28:09.347Z,12.48
2023-05-03T02:30:36.341Z,12.44
2023-05-03T02:33:03.233Z,12.39
2023-05-03T02:35:31.182Z,12.35
2023-05-03T02:37:58.090Z,12.30
2023-05-03T02:40:25.557Z,12.25
2023-05-03T02:42:53.461Z,12.19
2023-05-03T02:45:23.080Z,12.15
2023-05-03T02:47:49.892Z,12.11
2023-05-03T02:50:16.915Z,12.06
2023-05-03T02:52:43.794Z,12.02
2023-05-03T02:55:10.646Z,11.98
2023-05-03T02:57:37.796Z,11.95
2023-05-03T03:00:06.175Z,11.93
2023-05-03T03:02:33.374Z,11.92
2023-05-03T03:05:00.420Z,11.91
2023-05-03T03:07:28.613Z,11.89
2023-05-03T03:09:55.968Z,11.87
2023-05-03T03:12:22.832Z,11.85
2023-05-03T03:14:50.038Z,11.83
2023-05-03T03:17:16.920Z,11.81
2023-05-03T03:19:43.970Z,11.78
2023-05-03T03:22:11.043Z,11.76
2023-05-03T03:24:38.655Z,11.74
2023-05-03T03:27:05.610Z,11.73
2023-05-03T03:29:33.050Z,11.72
2023-05-03T03:32:00.548Z,11.71
2023-05-03T03:34:27.449Z,11.71
2023-05-03T03:36:54.426Z,11.71
2023-05-03T03:39:21.362Z,11.69
2023-05-03T03:41:48.565Z,11.69
2023-05-03T03:44:15.428Z,11.69
2023-05-03T03:46:42.699Z,11.69
2023-05-03T03:49:09.830Z,11.68
2023-05-03T03:51:36.970Z,11.68
2023-05-03T03:54:03.967Z,11.68
2023-05-03T03:56:32.273Z,11.70
2023-05-03T03:59:00.058Z,11.72
2023-05-03T04:01:26.929Z,11.74
2023-05-03T04:03:54.081Z,11.76
2023-05-03T04:06:21.083Z,11.79
2023-05-03T04:08:49.366Z,11.81
2023-05-03T04:11:16.812Z,11.84
2023-05-03T04:13:48.492Z,11.89
2023-05-03T04:16:15.962Z,11.93
2023-05-03T04:18:43.885Z,11.97
2023-05-03T04:21:10.818Z,12.00
2023-05-03T04:23:38.665Z,12.04
2023-05-03T04:26:06.571Z,12.10
2023-05-03T04:28:35.466Z,12.24
2023-05-03T04:31:02.463Z,12.38
2023-05-03T04:33:31.393Z,12.47
2023-05-03T04:36:02.358Z,12.52
2023-05-03T04:38:29.529Z,12.58
2023-05-03T04:40:58.442Z,12.64
2023-05-03T04:43:25.532Z,12.75
2023-05-03T04:45:53.663Z,12.90
2023-05-03T04:48:22.781Z,12.97
2023-05-03T04:50:49.729Z,13.02
2023-05-03T04:53:18.158Z,13.06
2023-05-03T04:55:48.569Z,13.11
2023-05-03T04:58:15.643Z,13.15
2023-05-03T05:00:43.079Z,13.17
2023-05-03T05:03:15.078Z,13.22
2023-05-03T05:05:42.016Z,13.27
2023-05-03T05:08:09.433Z,13.32
2023-05-03T05:10:43.139Z,13.37
2023-05-03T05:13:11.844Z,13.42
2023-05-03T05:15:38.880Z,13.48
2023-05-03T05:18:05.877Z,13.55
2023-05-03T05:20:32.813Z,13.63
2023-05-03T05:22:59.671Z,13.70
2023-05-03T05:25:27.403Z,13.75
2023-05-03T05:27:54.563Z,13.82
2023-05-03T05:30:23.577Z,13.91
2023-05-03T05:32:51.025Z,14.02
2023-05-03T05:35:19.382Z,14.11
2023-05-03T05:37:46.970Z,14.20
2023-05-03T05:40:15.329Z,14.28
2023-05-03T05:42:48.795Z,14.38
2023-05-03T05:45:15.817Z,14.47
2023-05-03T05:47:42.771Z,14.55
2023-05-03T05:50:17.424Z,14.62
2023-05-03T05:52:51.428Z,14.69
2023-05-03T05:55:18.860Z,14.71
2023-05-03T05:57:46.294Z,14.76
2023-05-03T06:00:15.959Z,14.80
2023-05-03T06:02:44.671Z,14.88
2023-05-03T06:05:16.198Z,14.98
2023-05-03T06:09:17.264Z,15.14
2023-05-03T06:11:52.144Z,15.23
2023-05-03T06:14:20.023Z,15.30
2023-05-03T06:16:47.416Z,15.38
2023-05-03T06:19:14.152Z,15.47
2023-05-03T06:21:40.786Z,15.56
2023-05-03T06:24:07.636Z,15.65
2023-05-03T06:26:35.338Z,15.74
2023-05-03T06:29:02.797Z,15.87
2023-05-03T06:31:30.452Z,15.99
2023-05-03T06:33:57.933Z,16.07
2023-05-03T06:36:25.192Z,16.14
2023-05-03T06:38:53.016Z,16.21
2023-05-03T06:41:19.640Z,16.33
2023-05-03T06:43:46.889Z,16.43
2023-05-03T06:46:13.563Z,16.52
2023-05-03T06:48:40.378Z,16.61
2023-05-03T06:51:07.051Z,16.72
2023-05-03T06:53:33.748Z,16.86
2023-05-03T06:56:03.137Z,17.00
2023-05-03T06:58:30.315Z,17.12
2023-05-03T07:00:57.577Z,17.23
2023-05-03T07:03:25.864Z,17.35
2023-05-03T07:05:52.830Z,17.46
2023-05-03T07:08:19.720Z,17.55
2023-05-03T07:10:46.864Z,17.62
2023-05-03T07:13:15.811Z,17.68
2023-05-03T07:15:43.577Z,17.70
2023-05-03T07:18:10.450Z,17.71
2023-05-03T07:20:37.774Z,17.73
2023-05-03T07:23:05.958Z,17.72
2023-05-03T07:25:34.204Z,17.75
2023-05-03T07:28:01.320Z,17.83
2023-05-03T07:30:29.179Z,17.96
2023-05-03T07:32:56.392Z,18.02
2023-05-03T07:35:23.302Z,18.04
2023-05-03T07:37:49.966Z,18.08
2023-05-03T07:40:17.416Z,18.12
2023-05-03T07:42:44.320Z,18.15
2023-05-03T07:45:11.165Z,18.10
2023-05-03T07:47:39.589Z,18.05
2023-05-03T07:50:06.757Z,18.05
2023-05-03T07:52:36.887Z,18.11
2023-05-03T07:55:03.898Z,18.20
2023-05-03T07:57:31.158Z,18.25
2023-05-03T07:59:57.840Z,18.28
2023-05-03T08:02:24.665Z,18.36
2023-05-03T08:04:51.545Z,18.49
2023-05-03T08:07:18.485Z,18.58
2023-05-03T08:09:47.084Z,18.60
2023-05-03T08:12:13.747Z,18.60
2023-05-03T08:14:40.730Z,18.61
2023-05-03T08:17:07.356Z,18.60
2023-05-03T08:19:34.105Z,18.61
2023-05-03T08:22:00.687Z,18.64
2023-05-03T08:24:27.325Z,18.74
2023-05-03T08:26:54.756Z,18.87
2023-05-03T08:29:21.261Z,18.98
2023-05-03T08:31:47.890Z,19.11
2023-05-03T08:34:15.134Z,19.24
2023-05-03T08:36:41.756Z,19.28
2023-05-03T08:39:09.754Z,19.23
2023-05-03T08:41:36.600Z,19.26
2023-05-03T08:44:04.878Z,19.33
2023-05-03T08:46:36.541Z,19.46
2023-05-03T08:49:03.357Z,19.58
2023-05-03T08:51:31.141Z,19.62
2023-05-03T08:53:58.574Z,19.68
2023-05-03T08:56:29.723Z,19.79
2023-05-03T08:59:01.125Z,19.90
2023-05-03T09:01:28.580Z,20.01
2023-05-03T09:03:55.508Z,20.21
2023-05-03T09:06:25.403Z,20.40
2023-05-03T09:08:53.654Z,20.60
2023-05-03T09:11:21.108Z,20.62
2023-05-03T09:13:52.708Z,20.63
2023-05-03T09:16:24.004Z,20.75
2023-05-03T09:19:00.896Z,21.05
2023-05-03T09:21:28.295Z,21.44
2023-05-03T09:23:55.075Z,21.73
2023-05-03T09:26:37.251Z,21.98
2023-05-03T09:29:04.795Z,22.27
2023-05-03T09:31:32.738Z,22.57
2023-05-03T09:33:59.579Z,22.91
2023-05-03T09:36:29.046Z,23.15
2023-05-03T09:38:55.811Z,23.12
2023-05-03T09:41:29.190Z,23.06
2023-05-03T09:43:58.142Z,23.18
2023-05-03T09:46:25.092Z,23.39
2023-05-03T09:48:54.796Z,23.62
2023-05-03T09:51:21.685Z,23.98
2023-05-03T09:53:48.470Z,24.39
2023-05-03T09:56:16.583Z,24.86
2023-05-03T09:58:43.171Z,25.34
2023-05-03T10:01:10.152Z,25.55
2023-05-03T10:03:41.645Z,25.59
2023-05-03T10:06:24.962Z,25.68
2023-05-03T10:09:29.226Z,25.84
2023-05-03T10:11:58.712Z,25.96
2023-05-03T10:14:25.916Z,26.06
2023-05-03T10:17:07.734Z,26.23
2023-05-03T10:19:56.240Z,26.20
2023-05-03T10:22:23.303Z,25.92
2023-05-03T10:24:59.514Z,25.66
2023-05-03T10:27:43.478Z,25.61
2023-05-03T10:30:25.563Z,25.64
2023-05-03T10:32:52.252Z,25.77
2023-05-03T10:35:18.938Z,25.88
2023-05-03T10:37:48.054Z,26.00
2023-05-03T10:40:16.099Z,26.07
2023-05-03T10:42:50.234Z,25.94
2023-05-03T10:45:27.872Z,25.87
2023-05-03T10:48:12.699Z,25.92
2023-05-03T10:50:39.505Z,25.92
2023-05-03T10:53:06.176Z,25.98
2023-05-03T10:55:33.939Z,26.20
2023-05-03T10:58:00.876Z,26.50
2023-05-03T11:00:33.764Z,26.63
2023-05-03T11:03:18.991Z,26.62
2023-05-03T11:05:47.215Z,26.62
2023-05-03T11:08:17.821Z,26.66
2023-05-03T11:10:50.520Z,26.80
2023-05-03T11:13:17.940Z,27.16
2023-05-03T11:15:45.842Z,27.45
2023-05-03T11:18:14.857Z,27.57
2023-05-03T11:20:41.381Z,27.75
2023-05-03T11:23:08.294Z,27.96
2023-05-03T11:25:36.224Z,28.29
2023-05-03T11:28:03.755Z,28.66
2023-05-03T11:30:32.810Z,28.94
2023-05-03T11:32:59.589Z,28.92
2023-05-03T11:35:28.259Z,28.62
2023-05-03T11:37:54.983Z,28.50
2023-05-03T11:40:21.658Z,28.54
2023-05-03T11:42:51.625Z,28.20
2023-05-03T11:45:22.796Z,27.53
2023-05-03T11:47:50.517Z,27.21
2023-05-03T11:50:17.942Z,27.47
2023-05-03T11:52:45.073Z,27.87
2023-05-03T11:55:11.757Z,28.14
2023-05-03T11:57:38.568Z,28.58
2023-05-03T12:00:16.423Z,29.00
2023-05-03T12:02:44.637Z,29.31
2023-05-03T12:05:12.596Z,29.53
2023-05-03T12:07:40.781Z,29.71
2023-05-03T12:10:20.246Z,29.92
2023-05-03T12:13:00.233Z,30.24
2023-05-03T12:15:30.077Z,30.47
2023-05-03T12:18:00.170Z,30.57
2023-05-03T12:23:04.038Z,30.09
2023-05-03T12:25:33.882Z,29.71
2023-05-03T12:28:18.456Z,29.38
2023-05-03T12:30:46.791Z,29.14
2023-05-03T12:33:15.806Z,28.80
2023-05-03T12:35:46.756Z,28.60
2023-05-03T12:38:16.468Z,28.75
2023-05-03T12:40:44.588Z,29.09
2023-05-03T12:43:11.363Z,29.24
2023-05-03T12:45:40.529Z,28.99
2023-05-03T12:48:08.395Z,28.63
2023-05-03T12:50:38.737Z,28.34
2023-05-03T12:53:09.557Z,27.81
2023-05-03T12:55:42.887Z,27.19
2023-05-03T13:00:48.229Z,26.47
2023-05-03T13:03:32.743Z,26.22
2023-05-03T13:06:11.823Z,26.07
2023-05-03T13:08:48.874Z,25.92
2023-05-03T13:11:18.904Z,25.81
2023-05-03T13:13:45.861Z,25.70
2023-05-03T13:16:13.318Z,25.57
2023-05-03T13:18:42.184Z,25.44
2023-05-03T13:21:09.490Z,25.29
2023-05-03T13:23:36.006Z,25.22
2023-05-03T13:26:05.422Z,25.15
2023-05-03T13:28:32.301Z,25.00
2023-05-03T13:30:58.958Z,24.90
2023-05-03T13:33:26.713Z,24.90
2023-05-03T13:35:54.348Z,24.93
2023-05-03T13:38:20.926Z,24.99
2023-05-03T13:40:47.509Z,25.01
2023-05-03T13:43:14.566Z,25.00
2023-05-03T13:45:43.470Z,24.98
2023-05-03T13:48:18.775Z,24.86
2023-05-03T13:50:46.065Z,24.59
2023-05-03T13:53:13.074Z,24.38
2023-05-03T13:55:39.745Z,24.30
2023-05-03T13:58:06.391Z,24.31
2023-05-03T14:00:33.561Z,24.34
2023-05-03T14:03:00.836Z,24.38
2023-05-03T14:05:28.516Z,24.35
2023-05-03T14:07:56.876Z,24.31
2023-05-03T14:10:24.131Z,24.20
2023-05-03T14:12:52.696Z,24.09
2023-05-03T14:15:20.984Z,23.98
2023-05-03T14:17:47.727Z,23.89
2023-05-03T14:20:16.891Z,23.81
2023-05-03T14:22:44.114Z,23.79
2023-05-03T14:25:12.043Z,23.79
2023-05-03T14:27:38.919Z,23.77
2023-05-03T14:30:06.811Z,23.73
2023-05-03T14:32:34.247Z,23.70
2023-05-03T14:35:01.453Z,23.67
2023-05-03T14:37:28.481Z,23.65
2023-05-03T14:39:55.320Z,23.62
2023-05-03T14:42:22.060Z,23.54
2023-05-03T14:44:49.131Z,23.45
2023-05-03T14:47:15.913Z,23.38
2023-05-03T14:49:42.607Z,23.33
2023-05-03T14:52:09.182Z,23.28
2023-05-03T14:54:36.408Z,23.23
2023-05-03T14:57:03.966Z,23.21
2023-05-03T14:59:33.408Z,23.17
2023-05-03T15:02:00.363Z,23.11
2023-05-03T15:04:27.271Z,23.05
2023-05-03T15:06:54.670Z,22.98
2023-05-03T15:09:21.584Z,22.91
2023-05-03T15:11:50.530Z,22.86
2023-05-03T15:14:19.748Z,22.85
2023-05-03T15:16:47.288Z,22.86
2023-05-03T15:19:17.834Z,22.84
2023-05-03T15:21:49.383Z,22.81
2023-05-03T15:24:16.454Z,22.77
2023-05-03T15:26:43.593Z,22.74
2023-05-03T15:29:10.336Z,22.72
2023-05-03T15:31:37.985Z,22.71
2023-05-03T15:34:05.995Z,22.69
2023-05-03T15:36:32.967Z,22.67
2023-05-03T15:38:59.801Z,22.67
2023-05-03T15:41:26.786Z,22.67
2023-05-03T15:43:54.854Z,22.66
2023-05-03T15:46:21.518Z,22.66
2023-05-03T15:48:48.179Z,22.66
2023-05-03T15:51:14.830Z,22.65
2023-05-03T15:53:41.512Z,22.65
2023-05-03T15:56:08.581Z,22.66
2023-05-03T15:58:36.392Z,22.65
2023-05-03T16:01:03.449Z,22.60
2023-05-03T16:03:31.091Z,22.55
2023-05-03T16:05:58.207Z,22.53
2023-05-03T16:08:25.596Z,22.50
2023-05-03T16:10:54.105Z,22.46
2023-05-03T16:13:21.396Z,22.44
2023-05-03T16:15:51.571Z,22.43
2023-05-03T16:18:19.977Z,22.39
2023-05-03T16:20:47.313Z,22.35
2023-05-03T16:23:14.030Z,22.32
2023-05-03T16:25:40.649Z,22.30
2023-05-03T16:28:07.722Z,22.29
2023-05-03T16:30:35.035Z,22.25
2023-05-03T16:33:02.537Z,22.21
2023-05-03T16:35:29.171Z,22.15
2023-05-03T16:37:56.033Z,22.07
2023-05-03T16:40:22.625Z,21.96
2023-05-03T16:42:50.188Z,21.88
2023-05-03T16:45:18.859Z,21.79
2023-05-03T16:47:46.003Z,21.73
2023-05-03T16:50:12.594Z,21.70
2023-05-03T16:52:40.641Z,21.66
2023-05-03T16:55:08.698Z,21.61
2023-05-03T16:57:36.500Z,21.55
2023-05-03T17:00:10.488Z,21.50
2023-05-03T17:02:39.207Z,21.45
2023-05-03T17:05:07.585Z,21.40
2023-05-03T17:07:35.049Z,21.34
2023-05-03T17:10:02.855Z,21.29
2023-05-03T17:12:30.511Z,21.23
2023-05-03T17:14:57.298Z,21.16
2023-05-03T17:17:23.888Z,21.10
2023-05-03T17:19:50.574Z,21.01
2023-05-03T17:22:17.300Z,20.92
2023-05-03T17:24:43.974Z,20.82
2023-05-03T17:27:10.543Z,20.75
2023-05-03T17:29:37.803Z,20.64
2023-05-03T17:32:04.600Z,20.49
2023-05-03T17:34:31.339Z,20.37
2023-05-03T17:36:58.430Z,20.26
2023-05-03T17:39:27.780Z,20.13
2023-05-03T17:41:54.464Z,19.98
2023-05-03T17:44:22.314Z,19.85
2023-05-03T17:46:50.097Z,19.72
2023-05-03T17:49:16.746Z,19.57
2023-05-03T17:51:43.933Z,19.42
2023-05-03T17:54:13.021Z,19.29
2023-05-03T17:56:39.762Z,19.13
2023-05-03T17:59:08.105Z,18.98
2023-05-03T18:01:34.927Z,18.81
2023-05-03T18:04:01.839Z,18.66
2023-05-03T18:06:28.932Z,18.49
2023-05-03T18:08:55.734Z,18.33
2023-05-03T18:11:22.485Z,18.19
2023-05-03T18:13:49.534Z,18.06
2023-05-03T18:16:16.368Z,17.94
2023-05-03T18:18:42.970Z,17.79
2023-05-03T18:21:11.170Z,17.66
2023-05-03T18:26:28.369Z,17.44
2023-05-03T18:28:57.299Z,17.34
2023-05-03T18:31:28.297Z,17.26
2023-05-03T18:34:01.089Z,17.19
2023-05-03T18:36:31.877Z,17.11
2023-05-03T18:38:58.726Z,17.03
2023-05-03T18:41:25.580Z,16.97
2023-05-03T18:43:52.323Z,16.91
2023-05-03T18:46:19.645Z,16.81
2023-05-03T18:48:47.952Z,16.72
2023-05-03T18:51:15.089Z,16.63
2023-05-03T18:53:41.845Z,16.53
2023-05-03T18:56:08.614Z,16.43
2023-05-03T18:58:35.356Z,16.31
2023-05-03T19:01:02.260Z,16.19
2023-05-03T19:03:29.612Z,16.09
2023-05-03T19:06:08.623Z,15.99
2023-05-03T19:08:35.822Z,15.91
2023-05-03T19:11:09.723Z,15.84
2023-05-03T19:13:36.616Z,15.74
2023-05-03T19:16:03.827Z,15.65
2023-05-03T19:18:31.744Z,15.59
2023-05-03T19:20:58.846Z,15.54
2023-05-03T19:23:25.774Z,15.48
2023-05-03T19:25:52.785Z,15.42
2023-05-03T19:28:19.577Z,15.37
2023-05-03T19:30:51.399Z,15.32
2023-05-03T19:33:21.733Z,15.27
2023-05-03T19:35:48.649Z,15.22
2023-05-03T19:38:15.598Z,15.18
2023-05-03T19:40:42.483Z,15.13
2023-05-03T19:43:09.395Z,15.11
2023-05-03T19:45:42.009Z,15.08
2023-05-03T19:48:10.613Z,15.03
2023-05-03T19:50:37.550Z,14.99
2023-05-03T19:53:04.389Z,14.96
2023-05-03T19:55:31.432Z,14.94
2023-05-03T19:57:58.432Z,14.93
2023-05-03T20:00:27.106Z,14.90
2023-05-03T20:02:54.998Z,14.86
2023-05-03T20:05:22.136Z,14.85
2023-05-03T20:07:49.222Z,14.84
2023-05-03T20:10:16.423Z,14.83
2023-05-03T20:12:44.915Z,14.81
2023-05-03T20:15:11.781Z,14.80
2023-05-03T20:17:38.791Z,14.80
2023-05-03T20:20:07.057Z,14.80
2023-05-03T20:22:34.067Z,14.78
2023-05-03T20:25:01.078Z,14.78
2023-05-03T20:27:30.410Z,14.76
2023-05-03T20:29:57.875Z,14.75
2023-05-03T20:32:24.952Z,14.73
2023-05-03T20:34:52.207Z,14.73
2023-05-03T20:37:19.652Z,14.71
2023-05-03T20:39:46.621Z,14.70
2023-05-03T20:42:13.944Z,14.68
2023-05-03T20:44:41.201Z,14.64
2023-05-03T20:47:08.106Z,14.61
2023-05-03T20:49:34.993Z,14.58
2023-05-03T20:52:01.892Z,14.52
2023-05-03T20:54:28.878Z,14.48
2023-05-03T20:56:56.025Z,14.47
2023-05-03T20:59:22.829Z,14.44
2023-05-03T21:01:49.701Z,14.42
2023-05-03T21:04:16.576Z,14.46
2023-05-03T21:06:45.184Z,14.52
2023-05-03T21:09:12.447Z,14.50
2023-05-03T21:11:39.383Z,14.48
2023-05-03T21:14:06.682Z,14.45
2023-05-03T21:16:33.611Z,14.42
2023-05-03T21:19:01.449Z,14.40
2023-05-03T21:21:28.549Z,14.38
2023-05-03T21:23:55.404Z,14.35
2023-05-03T21:26:22.470Z,14.32
2023-05-03T21:28:49.465Z,14.30
2023-05-03T21:31:16.437Z,14.26
2023-05-03T21:33:44.470Z,14.22
2023-05-03T21:36:12.636Z,14.17
2023-05-03T21:38:39.937Z,14.13
2023-05-03T21:41:07.373Z,14.09
2023-05-03T21:43:35.451Z,14.07
2023-05-03T21:46:04.085Z,14.12
2023-05-03T21:48:31.786Z,14.16
2023-05-03T21:50:58.692Z,14.13
2023-05-03T21:53:25.668Z,14.10
2023-05-03T21:55:52.620Z,14.08
2023-05-03T21:58:19.507Z,14.06
2023-05-03T22:00:46.428Z,14.02
2023-05-03T22:03:15.077Z,13.99
2023-05-03T22:05:44.993Z,13.95
2023-05-03T22:08:17.166Z,13.93
2023-05-03T22:10:45.698Z,13.89
2023-05-03T22:13:13.303Z,13.85
2023-05-03T22:15:40.406Z,13.82
2023-05-03T22:18:07.542Z,13.89
2023-05-03T22:20:34.711Z,13.95
2023-05-03T22:23:02.737Z,13.94
2023-05-03T22:25:32.071Z,13.91
2023-05-03T22:28:00.906Z,13.89
2023-05-03T22:30:28.847Z,13.86
2023-05-03T22:32:55.697Z,13.81
2023-05-03T22:35:22.484Z,13.76
2023-05-03T22:37:49.507Z,13.71
2023-05-03T22:40:16.393Z,13.65
2023-05-03T22:42:43.230Z,13.61
2023-05-03T22:45:10.522Z,13.66
2023-05-03T22:47:37.819Z,13.71
2023-05-03T22:50:05.882Z,13.67
2023-05-03T22:52:33.086Z,13.62
2023-05-03T22:55:01.670Z,13.57
2023-05-03T22:57:28.549Z,13.53
2023-05-03T22:59:56.918Z,13.46
2023-05-03T23:02:24.228Z,13.40
2023-05-03T23:04:51.098Z,13.32
2023-05-03T23:07:18.241Z,13.27
2023-05-03T23:09:48.708Z,13.31
2023-05-03T23:12:15.546Z,13.34
2023-05-03T23:14:45.840Z,13.29
2023-05-03T23:17:13.135Z,13.24
2023-05-03T23:19:39.972Z,13.18
2023-05-03T23:22:07.702Z,13.14
2023-05-03T23:24:35.108Z,13.10
2023-05-03T23:27:02.024Z,13.07
2023-05-03T23:29:29.408Z,13.12
2023-05-03T23:31:56.960Z,13.19
2023-05-03T23:34:25.237Z,13.17
2023-05-03T23:36:52.193Z,13.16
2023-05-03T23:39:19.136Z,13.14
2023-05-03T23:41:46.017Z,13.12
2023-05-03T23:44:13.094Z,13.10
2023-05-03T23:46:41.450Z,13.06
2023-05-03T23:49:09.636Z,13.01
2023-05-03T23:51:37.722Z,12.98
2023-05-03T23:54:04.841Z,13.05
2023-05-03T23:56:33.165Z,13.06
2023-05-03T23:59:01.966Z,13.03
